Mendoza, Argentina
Current Conditions -  °F | °C
As of 4:00 PM on Monday 22 Dec 2014 (Local Time) from SAME Reporting Station
Broken Clouds Broken Clouds  
Wind Chill: 19°   Ceiling: 5000
Heat Index: 19°   Visibility: 6mi
Dew Point: -3°   Wind: 3mph
Humidity: 23%   Direction: 110°ESE
Pressure: 30.15"   Gusts: NA
Location:  32.89°S, 68.83°W
Report Text: SAME 221900Z 11003KT 9999 FEW047 BKN050 19/M03 Q1021
Loading
Personal Weather Stations






























Interactive Weather Map New forecast layout! Learn more

10-Day Weather Forecast

Advertisements
Track Severe Weather on mobile